sensor_id;sensor_type;location;lat;lon;timestamp;P1;durP1;ratioP1;P2;durP2;ratioP2
7983;SDS011;4037;47.980;10.172;2024-01-16T00:00:10;5.63;;;3.07;;
7983;SDS011;4037;47.980;10.172;2024-01-16T00:02:36;4.53;;;3.50;;
7983;SDS011;4037;47.980;10.172;2024-01-16T00:05:02;3.27;;;2.87;;
7983;SDS011;4037;47.980;10.172;2024-01-16T00:07:28;3.40;;;2.63;;
7983;SDS011;4037;47.980;10.172;2024-01-16T00:09:54;4.50;;;3.77;;
7983;SDS011;4037;47.980;10.172;2024-01-16T00:12:20;4.17;;;3.20;;
7983;SDS011;4037;47.980;10.172;2024-01-16T00:14:46;3.43;;;2.90;;
7983;SDS011;4037;47.980;10.172;2024-01-16T00:17:12;4.00;;;2.93;;
7983;SDS011;4037;47.980;10.172;2024-01-16T00:19:38;3.97;;;3.47;;
7983;SDS011;4037;47.980;10.172;2024-01-16T00:22:04;6.50;;;3.30;;
7983;SDS011;4037;47.980;10.172;2024-01-16T00:24:30;4.27;;;2.83;;
7983;SDS011;4037;47.980;10.172;2024-01-16T00:26:56;4.87;;;3.00;;
7983;SDS011;4037;47.980;10.172;2024-01-16T00:29:22;3.10;;;2.80;;
7983;SDS011;4037;47.980;10.172;2024-01-16T00:31:48;3.83;;;3.47;;
7983;SDS011;4037;47.980;10.172;2024-01-16T00:34:14;4.43;;;3.63;;
7983;SDS011;4037;47.980;10.172;2024-01-16T00:36:40;3.23;;;2.90;;
7983;SDS011;4037;47.980;10.172;2024-01-16T00:39:06;3.37;;;3.07;;
7983;SDS011;4037;47.980;10.172;2024-01-16T00:41:33;5.07;;;3.13;;
7983;SDS011;4037;47.980;10.172;2024-01-16T00:43:59;4.00;;;3.37;;
7983;SDS011;4037;47.980;10.172;2024-01-16T00:46:25;5.33;;;3.03;;
7983;SDS011;4037;47.980;10.172;2024-01-16T00:48:51;3.33;;;2.97;;
7983;SDS011;4037;47.980;10.172;2024-01-16T00:51:17;5.10;;;3.47;;
7983;SDS011;4037;47.980;10.172;2024-01-16T00:53:43;4.00;;;2.83;;
7983;SDS011;4037;47.980;10.172;2024-01-16T00:56:09;5.60;;;3.97;;
7983;SDS011;4037;47.980;10.172;2024-01-16T00:58:35;4.40;;;3.17;;
7983;SDS011;4037;47.980;10.172;2024-01-16T01:01:02;3.57;;;3.10;;
7983;SDS011;4037;47.980;10.172;2024-01-16T01:03:28;3.90;;;3.50;;
7983;SDS011;4037;47.980;10.172;2024-01-16T01:05:55;5.33;;;3.40;;
7983;SDS011;4037;47.980;10.172;2024-01-16T01:08:21;6.47;;;3.17;;
7983;SDS011;4037;47.980;10.172;2024-01-16T01:10:47;3.37;;;3.03;;
7983;SDS011;4037;47.980;10.172;2024-01-16T01:13:13;4.10;;;3.33;;
7983;SDS011;4037;47.980;10.172;2024-01-16T01:15:39;7.10;;;3.60;;
7983;SDS011;4037;47.980;10.172;2024-01-16T01:18:05;5.33;;;3.77;;
7983;SDS011;4037;47.980;10.172;2024-01-16T01:20:31;8.77;;;3.63;;
7983;SDS011;4037;47.980;10.172;2024-01-16T01:22:57;3.90;;;3.47;;
7983;SDS011;4037;47.980;10.172;2024-01-16T01:25:25;6.13;;;3.60;;
7983;SDS011;4037;47.980;10.172;2024-01-16T01:27:51;4.03;;;3.57;;
7983;SDS011;4037;47.980;10.172;2024-01-16T01:30:17;3.83;;;3.33;;
7983;SDS011;4037;47.980;10.172;2024-01-16T01:32:43;4.83;;;4.07;;
7983;SDS011;4037;47.980;10.172;2024-01-16T01:35:09;5.90;;;4.07;;
7983;SDS011;4037;47.980;10.172;2024-01-16T01:37:36;3.47;;;2.97;;
7983;SDS011;4037;47.980;10.172;2024-01-16T01:40:03;5.13;;;3.37;;
7983;SDS011;4037;47.980;10.172;2024-01-16T01:42:29;5.60;;;3.33;;
7983;SDS011;4037;47.980;10.172;2024-01-16T01:44:55;3.40;;;3.10;;
7983;SDS011;4037;47.980;10.172;2024-01-16T01:47:21;3.73;;;3.03;;
7983;SDS011;4037;47.980;10.172;2024-01-16T01:49:47;5.40;;;3.63;;
7983;SDS011;4037;47.980;10.172;2024-01-16T01:52:13;3.50;;;3.20;;
7983;SDS011;4037;47.980;10.172;2024-01-16T01:54:40;4.07;;;3.07;;
7983;SDS011;4037;47.980;10.172;2024-01-16T01:57:06;4.03;;;3.50;;
7983;SDS011;4037;47.980;10.172;2024-01-16T01:59:34;5.73;;;3.03;;
7983;SDS011;4037;47.980;10.172;2024-01-16T02:02:00;6.70;;;4.10;;
7983;SDS011;4037;47.980;10.172;2024-01-16T02:04:26;4.83;;;3.33;;
7983;SDS011;4037;47.980;10.172;2024-01-16T02:06:53;3.37;;;3.07;;
7983;SDS011;4037;47.980;10.172;2024-01-16T02:09:21;4.07;;;3.10;;
7983;SDS011;4037;47.980;10.172;2024-01-16T02:11:47;3.47;;;2.90;;
7983;SDS011;4037;47.980;10.172;2024-01-16T02:14:13;4.80;;;3.50;;
7983;SDS011;4037;47.980;10.172;2024-01-16T02:16:40;5.70;;;3.87;;
7983;SDS011;4037;47.980;10.172;2024-01-16T02:19:07;4.67;;;3.73;;
7983;SDS011;4037;47.980;10.172;2024-01-16T02:21:39;4.37;;;2.90;;
7983;SDS011;4037;47.980;10.172;2024-01-16T02:24:07;3.60;;;3.30;;
7983;SDS011;4037;47.980;10.172;2024-01-16T02:26:33;5.93;;;3.83;;
7983;SDS011;4037;47.980;10.172;2024-01-16T02:29:03;4.37;;;3.10;;
7983;SDS011;4037;47.980;10.172;2024-01-16T02:31:29;9.50;;;3.23;;
7983;SDS011;4037;47.980;10.172;2024-01-16T02:33:55;4.60;;;2.83;;
7983;SDS011;4037;47.980;10.172;2024-01-16T02:36:21;5.00;;;3.87;;
7983;SDS011;4037;47.980;10.172;2024-01-16T02:38:47;4.23;;;3.50;;
7983;SDS011;4037;47.980;10.172;2024-01-16T02:41:14;3.23;;;2.67;;
7983;SDS011;4037;47.980;10.172;2024-01-16T02:43:41;4.33;;;3.50;;
7983;SDS011;4037;47.980;10.172;2024-01-16T02:46:07;4.10;;;3.00;;
7983;SDS011;4037;47.980;10.172;2024-01-16T02:48:36;3.13;;;2.70;;
7983;SDS011;4037;47.980;10.172;2024-01-16T02:51:02;5.47;;;3.37;;
7983;SDS011;4037;47.980;10.172;2024-01-16T02:53:29;6.57;;;3.40;;
7983;SDS011;4037;47.980;10.172;2024-01-16T02:55:55;4.87;;;3.30;;
7983;SDS011;4037;47.980;10.172;2024-01-16T02:58:23;4.47;;;3.37;;
7983;SDS011;4037;47.980;10.172;2024-01-16T03:00:50;4.97;;;3.60;;
7983;SDS011;4037;47.980;10.172;2024-01-16T03:03:16;3.70;;;2.90;;
7983;SDS011;4037;47.980;10.172;2024-01-16T03:05:42;4.23;;;3.63;;
7983;SDS011;4037;47.980;10.172;2024-01-16T03:08:08;4.10;;;3.10;;
7983;SDS011;4037;47.980;10.172;2024-01-16T03:10:34;5.90;;;4.10;;
7983;SDS011;4037;47.980;10.172;2024-01-16T03:13:01;3.67;;;3.20;;
7983;SDS011;4037;47.980;10.172;2024-01-16T03:15:27;3.27;;;2.77;;
7983;SDS011;4037;47.980;10.172;2024-01-16T03:17:55;4.50;;;3.27;;
7983;SDS011;4037;47.980;10.172;2024-01-16T03:20:21;4.80;;;3.43;;
7983;SDS011;4037;47.980;10.172;2024-01-16T03:22:48;4.60;;;3.00;;
7983;SDS011;4037;47.980;10.172;2024-01-16T03:25:14;3.43;;;2.83;;
7983;SDS011;4037;47.980;10.172;2024-01-16T03:27:40;4.87;;;3.43;;
7983;SDS011;4037;47.980;10.172;2024-01-16T03:30:06;4.77;;;3.53;;
7983;SDS011;4037;47.980;10.172;2024-01-16T03:32:33;4.30;;;3.70;;
7983;SDS011;4037;47.980;10.172;2024-01-16T03:34:59;3.47;;;3.17;;
7983;SDS011;4037;47.980;10.172;2024-01-16T03:37:25;4.07;;;3.30;;
7983;SDS011;4037;47.980;10.172;2024-01-16T03:39:51;3.90;;;3.33;;
7983;SDS011;4037;47.980;10.172;2024-01-16T03:42:17;3.10;;;2.77;;
7983;SDS011;4037;47.980;10.172;2024-01-16T03:44:43;6.20;;;2.93;;
7983;SDS011;4037;47.980;10.172;2024-01-16T03:47:09;3.33;;;3.03;;
7983;SDS011;4037;47.980;10.172;2024-01-16T03:49:35;7.73;;;3.23;;
7983;SDS011;4037;47.980;10.172;2024-01-16T03:52:01;7.13;;;3.77;;
7983;SDS011;4037;47.980;10.172;2024-01-16T03:54:27;3.27;;;2.93;;
7983;SDS011;4037;47.980;10.172;2024-01-16T03:56:53;5.00;;;3.43;;
7983;SDS011;4037;47.980;10.172;2024-01-16T03:59:19;3.30;;;3.00;;
7983;SDS011;4037;47.980;10.172;2024-01-16T04:01:45;4.90;;;3.37;;
7983;SDS011;4037;47.980;10.172;2024-01-16T04:04:13;6.10;;;3.97;;
7983;SDS011;4037;47.980;10.172;2024-01-16T04:06:39;7.17;;;3.77;;
7983;SDS011;4037;47.980;10.172;2024-01-16T04:09:05;5.63;;;3.40;;
7983;SDS011;4037;47.980;10.172;2024-01-16T04:11:31;5.13;;;3.10;;
7983;SDS011;4037;47.980;10.172;2024-01-16T04:13:57;6.13;;;2.73;;
7983;SDS011;4037;47.980;10.172;2024-01-16T04:16:23;4.00;;;3.33;;
7983;SDS011;4037;47.980;10.172;2024-01-16T04:18:49;6.17;;;3.20;;
7983;SDS011;4037;47.980;10.172;2024-01-16T04:21:15;3.87;;;3.27;;
7983;SDS011;4037;47.980;10.172;2024-01-16T04:23:41;4.53;;;3.43;;
7983;SDS011;4037;47.980;10.172;2024-01-16T04:26:07;4.90;;;3.47;;
7983;SDS011;4037;47.980;10.172;2024-01-16T04:28:33;5.20;;;3.37;;
7983;SDS011;4037;47.980;10.172;2024-01-16T04:31:00;3.30;;;3.00;;
7983;SDS011;4037;47.980;10.172;2024-01-16T04:33:26;6.67;;;4.20;;
7983;SDS011;4037;47.980;10.172;2024-01-16T04:35:52;4.57;;;3.87;;
7983;SDS011;4037;47.980;10.172;2024-01-16T04:38:18;4.17;;;3.70;;
7983;SDS011;4037;47.980;10.172;2024-01-16T04:40:44;3.93;;;3.53;;
7983;SDS011;4037;47.980;10.172;2024-01-16T04:43:10;6.03;;;3.60;;
7983;SDS011;4037;47.980;10.172;2024-01-16T04:45:36;3.60;;;3.30;;
7983;SDS011;4037;47.980;10.172;2024-01-16T04:48:02;11.20;;;4.73;;
7983;SDS011;4037;47.980;10.172;2024-01-16T04:50:28;6.90;;;4.97;;
7983;SDS011;4037;47.980;10.172;2024-01-16T04:53:00;6.30;;;3.97;;
7983;SDS011;4037;47.980;10.172;2024-01-16T04:55:29;5.10;;;3.73;;
7983;SDS011;4037;47.980;10.172;2024-01-16T04:57:55;4.33;;;3.93;;
7983;SDS011;4037;47.980;10.172;2024-01-16T05:00:22;5.23;;;3.37;;
7983;SDS011;4037;47.980;10.172;2024-01-16T05:02:48;4.43;;;3.17;;
7983;SDS011;4037;47.980;10.172;2024-01-16T05:05:14;5.77;;;4.03;;
7983;SDS011;4037;47.980;10.172;2024-01-16T05:07:41;6.07;;;3.87;;
7983;SDS011;4037;47.980;10.172;2024-01-16T05:10:09;6.33;;;3.87;;
7983;SDS011;4037;47.980;10.172;2024-01-16T05:12:37;5.67;;;4.20;;
7983;SDS011;4037;47.980;10.172;2024-01-16T05:15:04;4.70;;;3.57;;
7983;SDS011;4037;47.980;10.172;2024-01-16T05:17:30;5.30;;;3.63;;
7983;SDS011;4037;47.980;10.172;2024-01-16T05:19:56;6.53;;;4.53;;
7983;SDS011;4037;47.980;10.172;2024-01-16T05:22:22;15.03;;;4.17;;
7983;SDS011;4037;47.980;10.172;2024-01-16T05:24:48;7.13;;;4.13;;
7983;SDS011;4037;47.980;10.172;2024-01-16T05:27:14;8.13;;;4.23;;
7983;SDS011;4037;47.980;10.172;2024-01-16T05:29:40;7.10;;;3.67;;
7983;SDS011;4037;47.980;10.172;2024-01-16T05:32:06;5.60;;;4.37;;
7983;SDS011;4037;47.980;10.172;2024-01-16T05:34:32;5.10;;;3.97;;
7983;SDS011;4037;47.980;10.172;2024-01-16T05:36:58;4.93;;;4.40;;
7983;SDS011;4037;47.980;10.172;2024-01-16T05:39:24;5.60;;;4.27;;
7983;SDS011;4037;47.980;10.172;2024-01-16T05:41:50;4.87;;;3.63;;
7983;SDS011;4037;47.980;10.172;2024-01-16T05:44:16;6.07;;;4.17;;
7983;SDS011;4037;47.980;10.172;2024-01-16T05:46:42;6.23;;;3.53;;
7983;SDS011;4037;47.980;10.172;2024-01-16T05:49:08;4.67;;;3.70;;
7983;SDS011;4037;47.980;10.172;2024-01-16T05:51:34;5.13;;;3.57;;
7983;SDS011;4037;47.980;10.172;2024-01-16T05:54:01;5.13;;;4.13;;
7983;SDS011;4037;47.980;10.172;2024-01-16T05:56:28;5.33;;;3.97;;
7983;SDS011;4037;47.980;10.172;2024-01-16T05:58:54;6.13;;;4.23;;
7983;SDS011;4037;47.980;10.172;2024-01-16T06:01:20;8.00;;;4.43;;
7983;SDS011;4037;47.980;10.172;2024-01-16T06:03:46;6.43;;;3.57;;
7983;SDS011;4037;47.980;10.172;2024-01-16T06:06:13;6.60;;;4.37;;
7983;SDS011;4037;47.980;10.172;2024-01-16T06:08:39;7.90;;;4.67;;
7983;SDS011;4037;47.980;10.172;2024-01-16T06:11:05;4.87;;;4.07;;
7983;SDS011;4037;47.980;10.172;2024-01-16T06:13:31;7.67;;;3.60;;
7983;SDS011;4037;47.980;10.172;2024-01-16T06:15:58;4.53;;;3.67;;
7983;SDS011;4037;47.980;10.172;2024-01-16T06:18:24;5.43;;;4.13;;
7983;SDS011;4037;47.980;10.172;2024-01-16T06:20:50;5.70;;;4.57;;
7983;SDS011;4037;47.980;10.172;2024-01-16T06:23:16;6.13;;;4.83;;
7983;SDS011;4037;47.980;10.172;2024-01-16T06:25:42;9.63;;;5.43;;
7983;SDS011;4037;47.980;10.172;2024-01-16T06:28:08;10.93;;;5.37;;
7983;SDS011;4037;47.980;10.172;2024-01-16T06:30:34;8.17;;;5.67;;
7983;SDS011;4037;47.980;10.172;2024-01-16T06:33:00;12.20;;;6.33;;
7983;SDS011;4037;47.980;10.172;2024-01-16T06:35:26;7.33;;;5.60;;
7983;SDS011;4037;47.980;10.172;2024-01-16T06:37:53;10.63;;;6.40;;
7983;SDS011;4037;47.980;10.172;2024-01-16T06:40:19;9.13;;;5.83;;
7983;SDS011;4037;47.980;10.172;2024-01-16T06:42:46;9.67;;;5.30;;
7983;SDS011;4037;47.980;10.172;2024-01-16T06:45:12;6.30;;;4.60;;
7983;SDS011;4037;47.980;10.172;2024-01-16T06:47:38;7.77;;;6.43;;
7983;SDS011;4037;47.980;10.172;2024-01-16T06:50:04;5.40;;;4.83;;
7983;SDS011;4037;47.980;10.172;2024-01-16T06:52:30;5.90;;;5.33;;
7983;SDS011;4037;47.980;10.172;2024-01-16T06:54:57;7.43;;;4.63;;
7983;SDS011;4037;47.980;10.172;2024-01-16T06:57:22;6.00;;;4.97;;
7983;SDS011;4037;47.980;10.172;2024-01-16T06:59:48;4.90;;;3.97;;
7983;SDS011;4037;47.980;10.172;2024-01-16T07:02:14;6.60;;;4.70;;
7983;SDS011;4037;47.980;10.172;2024-01-16T07:04:40;5.37;;;4.00;;
7983;SDS011;4037;47.980;10.172;2024-01-16T07:07:06;13.93;;;7.27;;
7983;SDS011;4037;47.980;10.172;2024-01-16T07:09:32;8.70;;;4.97;;
7983;SDS011;4037;47.980;10.172;2024-01-16T07:11:58;9.90;;;5.67;;
7983;SDS011;4037;47.980;10.172;2024-01-16T07:14:24;7.30;;;5.20;;
7983;SDS011;4037;47.980;10.172;2024-01-16T07:16:50;6.07;;;4.73;;
7983;SDS011;4037;47.980;10.172;2024-01-16T07:19:16;8.87;;;5.20;;
7983;SDS011;4037;47.980;10.172;2024-01-16T07:21:42;14.77;;;7.00;;
7983;SDS011;4037;47.980;10.172;2024-01-16T07:24:09;12.70;;;7.87;;
7983;SDS011;4037;47.980;10.172;2024-01-16T07:26:35;12.83;;;7.57;;
7983;SDS011;4037;47.980;10.172;2024-01-16T07:29:01;13.00;;;6.77;;
7983;SDS011;4037;47.980;10.172;2024-01-16T07:31:28;13.53;;;6.70;;
7983;SDS011;4037;47.980;10.172;2024-01-16T07:33:54;9.33;;;6.30;;
7983;SDS011;4037;47.980;10.172;2024-01-16T07:36:20;8.43;;;6.37;;
7983;SDS011;4037;47.980;10.172;2024-01-16T07:38:46;12.37;;;6.67;;
7983;SDS011;4037;47.980;10.172;2024-01-16T07:41:12;10.63;;;6.27;;
7983;SDS011;4037;47.980;10.172;2024-01-16T07:43:38;8.47;;;5.93;;
7983;SDS011;4037;47.980;10.172;2024-01-16T07:46:05;8.60;;;5.67;;
7983;SDS011;4037;47.980;10.172;2024-01-16T07:48:31;10.80;;;5.50;;
7983;SDS011;4037;47.980;10.172;2024-01-16T07:50:57;11.77;;;5.73;;
7983;SDS011;4037;47.980;10.172;2024-01-16T07:53:23;7.17;;;5.50;;
7983;SDS011;4037;47.980;10.172;2024-01-16T07:55:52;11.43;;;5.87;;
7983;SDS011;4037;47.980;10.172;2024-01-16T07:58:19;13.23;;;6.87;;
7983;SDS011;4037;47.980;10.172;2024-01-16T08:00:45;11.77;;;7.20;;
7983;SDS011;4037;47.980;10.172;2024-01-16T08:03:11;10.93;;;6.70;;
7983;SDS011;4037;47.980;10.172;2024-01-16T08:05:39;18.50;;;11.77;;
7983;SDS011;4037;47.980;10.172;2024-01-16T08:08:07;40.70;;;20.77;;
7983;SDS011;4037;47.980;10.172;2024-01-16T08:10:35;45.93;;;20.63;;
7983;SDS011;4037;47.980;10.172;2024-01-16T08:13:01;38.40;;;18.93;;
7983;SDS011;4037;47.980;10.172;2024-01-16T08:15:27;17.97;;;11.83;;
7983;SDS011;4037;47.980;10.172;2024-01-16T08:17:53;53.43;;;22.27;;
7983;SDS011;4037;47.980;10.172;2024-01-16T08:20:19;58.63;;;23.77;;
7983;SDS011;4037;47.980;10.172;2024-01-16T08:22:45;33.43;;;15.37;;
7983;SDS011;4037;47.980;10.172;2024-01-16T08:25:11;39.30;;;15.27;;
7983;SDS011;4037;47.980;10.172;2024-01-16T08:27:37;52.20;;;17.20;;
7983;SDS011;4037;47.980;10.172;2024-01-16T08:30:06;27.47;;;13.70;;
7983;SDS011;4037;47.980;10.172;2024-01-16T08:32:32;40.07;;;15.53;;
7983;SDS011;4037;47.980;10.172;2024-01-16T08:34:58;27.87;;;12.57;;
7983;SDS011;4037;47.980;10.172;2024-01-16T08:37:24;30.77;;;13.50;;
7983;SDS011;4037;47.980;10.172;2024-01-16T08:39:50;20.33;;;11.77;;
7983;SDS011;4037;47.980;10.172;2024-01-16T08:42:17;20.33;;;12.50;;
7983;SDS011;4037;47.980;10.172;2024-01-16T08:44:43;23.83;;;12.33;;
7983;SDS011;4037;47.980;10.172;2024-01-16T08:47:09;29.17;;;12.80;;
7983;SDS011;4037;47.980;10.172;2024-01-16T08:49:35;31.13;;;14.90;;
7983;SDS011;4037;47.980;10.172;2024-01-16T08:52:03;34.43;;;14.90;;
7983;SDS011;4037;47.980;10.172;2024-01-16T08:54:30;29.73;;;16.17;;
7983;SDS011;4037;47.980;10.172;2024-01-16T08:56:56;40.70;;;18.13;;
7983;SDS011;4037;47.980;10.172;2024-01-16T08:59:23;31.77;;;16.10;;
7983;SDS011;4037;47.980;10.172;2024-01-16T09:01:49;28.27;;;13.10;;
7983;SDS011;4037;47.980;10.172;2024-01-16T09:04:16;26.20;;;14.00;;
7983;SDS011;4037;47.980;10.172;2024-01-16T09:06:42;19.70;;;11.43;;
7983;SDS011;4037;47.980;10.172;2024-01-16T09:09:08;22.80;;;11.27;;
7983;SDS011;4037;47.980;10.172;2024-01-16T09:11:34;25.10;;;13.80;;
7983;SDS011;4037;47.980;10.172;2024-01-16T09:14:00;29.27;;;14.47;;
7983;SDS011;4037;47.980;10.172;2024-01-16T09:16:26;31.03;;;14.53;;
7983;SDS011;4037;47.980;10.172;2024-01-16T09:18:52;22.40;;;13.00;;
7983;SDS011;4037;47.980;10.172;2024-01-16T09:21:19;23.63;;;12.40;;
7983;SDS011;4037;47.980;10.172;2024-01-16T09:23:46;21.03;;;11.20;;
7983;SDS011;4037;47.980;10.172;2024-01-16T09:26:12;13.77;;;8.90;;
7983;SDS011;4037;47.980;10.172;2024-01-16T09:28:38;10.57;;;7.17;;
7983;SDS011;4037;47.980;10.172;2024-01-16T09:31:05;11.73;;;7.50;;
7983;SDS011;4037;47.980;10.172;2024-01-16T09:33:31;10.07;;;7.63;;
7983;SDS011;4037;47.980;10.172;2024-01-16T09:35:57;11.53;;;7.47;;
7983;SDS011;4037;47.980;10.172;2024-01-16T09:38:23;19.23;;;9.93;;
7983;SDS011;4037;47.980;10.172;2024-01-16T09:40:49;10.90;;;8.43;;
7983;SDS011;4037;47.980;10.172;2024-01-16T09:43:17;10.30;;;7.57;;
7983;SDS011;4037;47.980;10.172;2024-01-16T09:45:43;10.17;;;7.00;;
7983;SDS011;4037;47.980;10.172;2024-01-16T09:48:10;9.57;;;7.53;;
7983;SDS011;4037;47.980;10.172;2024-01-16T09:50:37;10.67;;;7.20;;
7983;SDS011;4037;47.980;10.172;2024-01-16T09:53:03;10.07;;;7.10;;
7983;SDS011;4037;47.980;10.172;2024-01-16T09:55:29;9.70;;;6.90;;
7983;SDS011;4037;47.980;10.172;2024-01-16T09:57:55;9.00;;;6.37;;
7983;SDS011;4037;47.980;10.172;2024-01-16T10:00:22;14.73;;;6.70;;
7983;SDS011;4037;47.980;10.172;2024-01-16T10:02:50;11.50;;;6.53;;
7983;SDS011;4037;47.980;10.172;2024-01-16T10:05:17;9.10;;;6.57;;
7983;SDS011;4037;47.980;10.172;2024-01-16T10:07:43;9.43;;;6.20;;
7983;SDS011;4037;47.980;10.172;2024-01-16T10:10:09;7.33;;;6.17;;
7983;SDS011;4037;47.980;10.172;2024-01-16T10:12:36;8.87;;;5.93;;
7983;SDS011;4037;47.980;10.172;2024-01-16T10:15:03;9.63;;;6.43;;
7983;SDS011;4037;47.980;10.172;2024-01-16T10:20:02;8.50;;;5.63;;
7983;SDS011;4037;47.980;10.172;2024-01-16T10:22:29;7.30;;;5.23;;
7983;SDS011;4037;47.980;10.172;2024-01-16T10:27:35;6.50;;;5.33;;
7983;SDS011;4037;47.980;10.172;2024-01-16T10:30:01;6.77;;;5.10;;
7983;SDS011;4037;47.980;10.172;2024-01-16T10:32:28;4.80;;;4.20;;
7983;SDS011;4037;47.980;10.172;2024-01-16T10:35:28;7.80;;;4.00;;
7983;SDS011;4037;47.980;10.172;2024-01-16T10:37:48;9.47;;;4.73;;
7983;SDS011;4037;47.980;10.172;2024-01-16T10:40:15;4.80;;;3.50;;
7983;SDS011;4037;47.980;10.172;2024-01-16T10:42:41;5.00;;;3.77;;
7983;SDS011;4037;47.980;10.172;2024-01-16T10:45:08;4.70;;;3.10;;
7983;SDS011;4037;47.980;10.172;2024-01-16T10:47:37;9.90;;;4.57;;
7983;SDS011;4037;47.980;10.172;2024-01-16T10:50:04;6.07;;;5.00;;
7983;SDS011;4037;47.980;10.172;2024-01-16T10:52:34;5.83;;;3.50;;
7983;SDS011;4037;47.980;10.172;2024-01-16T10:55:03;3.80;;;3.20;;
7983;SDS011;4037;47.980;10.172;2024-01-16T10:57:33;6.10;;;3.50;;
7983;SDS011;4037;47.980;10.172;2024-01-16T11:00:03;4.70;;;3.60;;
7983;SDS011;4037;47.980;10.172;2024-01-16T11:02:32;4.00;;;2.90;;
7983;SDS011;4037;47.980;10.172;2024-01-16T11:05:01;3.60;;;3.30;;
7983;SDS011;4037;47.980;10.172;2024-01-16T11:07:28;4.33;;;2.93;;
7983;SDS011;4037;47.980;10.172;2024-01-16T11:09:55;8.27;;;3.53;;
7983;SDS011;4037;47.980;10.172;2024-01-16T11:12:21;5.10;;;3.10;;
7983;SDS011;4037;47.980;10.172;2024-01-16T11:14:51;3.03;;;2.47;;
7983;SDS011;4037;47.980;10.172;2024-01-16T11:17:19;3.60;;;2.63;;
7983;SDS011;4037;47.980;10.172;2024-01-16T11:19:46;3.63;;;3.10;;
7983;SDS011;4037;47.980;10.172;2024-01-16T11:22:13;7.60;;;3.00;;
7983;SDS011;4037;47.980;10.172;2024-01-16T11:24:39;4.53;;;3.47;;
7983;SDS011;4037;47.980;10.172;2024-01-16T11:27:05;3.83;;;2.83;;
7983;SDS011;4037;47.980;10.172;2024-01-16T11:29:33;6.50;;;3.37;;
7983;SDS011;4037;47.980;10.172;2024-01-16T11:32:00;4.37;;;3.47;;
7983;SDS011;4037;47.980;10.172;2024-01-16T11:37:07;5.23;;;3.60;;
7983;SDS011;4037;47.980;10.172;2024-01-16T11:39:33;5.37;;;3.53;;
7983;SDS011;4037;47.980;10.172;2024-01-16T11:41:59;4.40;;;3.70;;
7983;SDS011;4037;47.980;10.172;2024-01-16T11:49:41;5.90;;;4.20;;
7983;SDS011;4037;47.980;10.172;2024-01-16T11:52:07;6.10;;;4.03;;
7983;SDS011;4037;47.980;10.172;2024-01-16T11:54:36;4.13;;;3.67;;
7983;SDS011;4037;47.980;10.172;2024-01-16T12:02:05;6.83;;;4.87;;
7983;SDS011;4037;47.980;10.172;2024-01-16T12:04:34;15.87;;;7.73;;
7983;SDS011;4037;47.980;10.172;2024-01-16T12:07:00;9.03;;;5.10;;
7983;SDS011;4037;47.980;10.172;2024-01-16T12:09:27;6.47;;;4.30;;
7983;SDS011;4037;47.980;10.172;2024-01-16T12:11:59;7.60;;;5.17;;
7983;SDS011;4037;47.980;10.172;2024-01-16T12:14:26;9.37;;;4.83;;
7983;SDS011;4037;47.980;10.172;2024-01-16T12:16:52;6.83;;;4.60;;
7983;SDS011;4037;47.980;10.172;2024-01-16T12:19:18;7.63;;;4.97;;
7983;SDS011;4037;47.980;10.172;2024-01-16T12:21:44;4.87;;;4.10;;
7983;SDS011;4037;47.980;10.172;2024-01-16T12:24:11;11.43;;;6.40;;
7983;SDS011;4037;47.980;10.172;2024-01-16T12:26:37;8.57;;;4.80;;
7983;SDS011;4037;47.980;10.172;2024-01-16T12:29:04;10.33;;;6.97;;
7983;SDS011;4037;47.980;10.172;2024-01-16T12:31:31;6.20;;;4.53;;
7983;SDS011;4037;47.980;10.172;2024-01-16T12:36:35;7.90;;;5.63;;
7983;SDS011;4037;47.980;10.172;2024-01-16T12:39:01;6.27;;;4.53;;
7983;SDS011;4037;47.980;10.172;2024-01-16T12:41:28;6.43;;;3.97;;
7983;SDS011;4037;47.980;10.172;2024-01-16T12:43:54;7.20;;;3.97;;
7983;SDS011;4037;47.980;10.172;2024-01-16T12:46:20;5.80;;;4.37;;
7983;SDS011;4037;47.980;10.172;2024-01-16T12:48:46;5.40;;;4.40;;
7983;SDS011;4037;47.980;10.172;2024-01-16T12:51:19;8.50;;;4.87;;
7983;SDS011;4037;47.980;10.172;2024-01-16T12:53:46;8.70;;;4.93;;
7983;SDS011;4037;47.980;10.172;2024-01-16T12:56:12;5.43;;;4.87;;
7983;SDS011;4037;47.980;10.172;2024-01-16T12:58:38;18.83;;;8.13;;
7983;SDS011;4037;47.980;10.172;2024-01-16T13:03:50;11.03;;;7.33;;
7983;SDS011;4037;47.980;10.172;2024-01-16T13:06:17;7.20;;;4.83;;
7983;SDS011;4037;47.980;10.172;2024-01-16T13:08:49;5.90;;;4.50;;
7983;SDS011;4037;47.980;10.172;2024-01-16T13:11:17;9.13;;;6.07;;
7983;SDS011;4037;47.980;10.172;2024-01-16T13:13:46;16.00;;;6.70;;
7983;SDS011;4037;47.980;10.172;2024-01-16T13:16:13;10.40;;;6.53;;
7983;SDS011;4037;47.980;10.172;2024-01-16T13:18:40;11.90;;;6.20;;
7983;SDS011;4037;47.980;10.172;2024-01-16T13:21:06;7.57;;;5.40;;
7983;SDS011;4037;47.980;10.172;2024-01-16T13:23:32;7.70;;;4.90;;
7983;SDS011;4037;47.980;10.172;2024-01-16T13:25:58;7.20;;;4.17;;
7983;SDS011;4037;47.980;10.172;2024-01-16T13:28:24;8.27;;;5.17;;
7983;SDS011;4037;47.980;10.172;2024-01-16T13:30:51;6.93;;;4.53;;
7983;SDS011;4037;47.980;10.172;2024-01-16T13:35:43;9.57;;;5.67;;
7983;SDS011;4037;47.980;10.172;2024-01-16T13:38:09;6.67;;;4.97;;
7983;SDS011;4037;47.980;10.172;2024-01-16T13:40:36;5.90;;;4.57;;
7983;SDS011;4037;47.980;10.172;2024-01-16T13:43:02;7.30;;;5.43;;
7983;SDS011;4037;47.980;10.172;2024-01-16T13:45:28;8.60;;;6.33;;
7983;SDS011;4037;47.980;10.172;2024-01-16T13:47:55;9.00;;;5.77;;
7983;SDS011;4037;47.980;10.172;2024-01-16T13:50:21;6.93;;;4.90;;
7983;SDS011;4037;47.980;10.172;2024-01-16T13:52:47;6.63;;;5.30;;
7983;SDS011;4037;47.980;10.172;2024-01-16T13:55:13;7.87;;;4.70;;
7983;SDS011;4037;47.980;10.172;2024-01-16T13:57:39;7.63;;;5.27;;
7983;SDS011;4037;47.980;10.172;2024-01-16T14:00:06;5.57;;;4.43;;
7983;SDS011;4037;47.980;10.172;2024-01-16T14:02:33;4.93;;;4.22;;
7983;SDS011;4037;47.980;10.172;2024-01-16T14:05:02;4.75;;;3.88;;
7983;SDS011;4037;47.980;10.172;2024-01-16T14:07:28;7.15;;;5.07;;
7983;SDS011;4037;47.980;10.172;2024-01-16T14:09:54;8.10;;;5.07;;
7983;SDS011;4037;47.980;10.172;2024-01-16T14:12:20;6.68;;;4.72;;
7983;SDS011;4037;47.980;10.172;2024-01-16T14:14:46;6.43;;;4.40;;
7983;SDS011;4037;47.980;10.172;2024-01-16T14:17:12;8.20;;;5.72;;
7983;SDS011;4037;47.980;10.172;2024-01-16T14:19:38;6.87;;;5.17;;
7983;SDS011;4037;47.980;10.172;2024-01-16T14:22:05;5.77;;;4.97;;
7983;SDS011;4037;47.980;10.172;2024-01-16T14:24:31;6.47;;;5.10;;
7983;SDS011;4037;47.980;10.172;2024-01-16T14:26:57;6.43;;;5.17;;
7983;SDS011;4037;47.980;10.172;2024-01-16T14:29:23;15.80;;;9.20;;
7983;SDS011;4037;47.980;10.172;2024-01-16T14:31:49;8.87;;;6.03;;
7983;SDS011;4037;47.980;10.172;2024-01-16T14:34:16;9.13;;;6.57;;
7983;SDS011;4037;47.980;10.172;2024-01-16T14:36:45;8.23;;;5.50;;
7983;SDS011;4037;47.980;10.172;2024-01-16T14:39:11;7.53;;;5.47;;
7983;SDS011;4037;47.980;10.172;2024-01-16T14:41:42;17.70;;;9.03;;
7983;SDS011;4037;47.980;10.172;2024-01-16T14:44:08;15.37;;;8.80;;
7983;SDS011;4037;47.980;10.172;2024-01-16T14:46:37;12.87;;;7.23;;
7983;SDS011;4037;47.980;10.172;2024-01-16T14:49:03;8.03;;;5.67;;
7983;SDS011;4037;47.980;10.172;2024-01-16T14:51:30;9.63;;;6.47;;
7983;SDS011;4037;47.980;10.172;2024-01-16T14:53:57;12.67;;;7.63;;
7983;SDS011;4037;47.980;10.172;2024-01-16T14:56:26;17.57;;;9.53;;
7983;SDS011;4037;47.980;10.172;2024-01-16T14:58:52;12.60;;;8.20;;
7983;SDS011;4037;47.980;10.172;2024-01-16T15:01:18;14.40;;;9.40;;
7983;SDS011;4037;47.980;10.172;2024-01-16T15:03:44;14.63;;;7.77;;
7983;SDS011;4037;47.980;10.172;2024-01-16T15:06:10;12.20;;;6.67;;
7983;SDS011;4037;47.980;10.172;2024-01-16T15:08:38;8.30;;;5.57;;
7983;SDS011;4037;47.980;10.172;2024-01-16T15:11:04;7.10;;;4.97;;
7983;SDS011;4037;47.980;10.172;2024-01-16T15:13:31;7.40;;;5.30;;
7983;SDS011;4037;47.980;10.172;2024-01-16T15:15:57;14.70;;;6.50;;
7983;SDS011;4037;47.980;10.172;2024-01-16T15:18:23;13.03;;;5.43;;